createdAt,value
2023-06-12T00:04:15.605Z,2.30
2023-06-12T00:09:19.037Z,2.30
2023-06-12T00:14:22.532Z,1.70
2023-06-12T00:19:26.732Z,2.30
2023-06-12T00:24:30.138Z,3.10
2023-06-12T00:29:33.504Z,3.00
2023-06-12T00:34:36.966Z,2.90
2023-06-12T00:39:40.356Z,3.10
2023-06-12T00:44:43.707Z,2.30
2023-06-12T00:49:47.500Z,2.40
2023-06-12T00:54:52.156Z,3.90
2023-06-12T00:59:55.748Z,3.90
2023-06-12T01:04:59.180Z,5.70
2023-06-12T01:10:18.329Z,4.90
2023-06-12T01:15:21.877Z,2.10
2023-06-12T01:20:26.857Z,1.90
2023-06-12T01:26:03.179Z,1.80
2023-06-12T01:31:34.520Z,2.50
2023-06-12T01:36:40.797Z,1.70
2023-06-12T01:41:45.852Z,1.70
2023-06-12T01:46:49.195Z,2.10
2023-06-12T01:51:55.875Z,2.00
2023-06-12T01:56:59.185Z,1.80
2023-06-12T02:02:03.838Z,1.90
2023-06-12T02:07:08.362Z,2.30
2023-06-12T02:12:12.729Z,1.90
2023-06-12T02:17:19.277Z,1.80
2023-06-12T02:22:23.031Z,1.90
2023-06-12T02:27:26.343Z,1.80
2023-06-12T02:32:29.792Z,2.30
2023-06-12T02:37:33.500Z,2.00
2023-06-12T02:42:37.110Z,1.80
2023-06-12T02:47:40.416Z,1.90
2023-06-12T02:52:43.790Z,2.00
2023-06-12T02:57:47.438Z,2.30
2023-06-12T03:02:51.207Z,2.00
2023-06-12T03:07:54.750Z,2.10
2023-06-12T03:12:58.345Z,2.10
2023-06-12T03:18:01.925Z,1.90
2023-06-12T03:23:05.654Z,1.70
2023-06-12T03:28:09.115Z,1.70
2023-06-12T03:33:13.831Z,2.10
2023-06-12T03:38:17.142Z,2.00
2023-06-12T03:43:20.554Z,1.90
2023-06-12T03:48:23.931Z,1.90
2023-06-12T03:53:27.447Z,2.20
2023-06-12T03:58:30.733Z,1.90
2023-06-12T04:03:36.124Z,2.00
2023-06-12T04:08:39.836Z,2.20
2023-06-12T04:13:43.165Z,1.90
2023-06-12T04:18:47.360Z,2.40
2023-06-12T04:23:52.667Z,2.60
2023-06-12T04:28:58.290Z,2.10
2023-06-12T04:34:02.021Z,2.10
2023-06-12T04:39:06.952Z,2.40
2023-06-12T04:44:12.667Z,2.10
2023-06-12T04:49:16.503Z,2.40
2023-06-12T04:54:21.331Z,2.40
2023-06-12T04:59:24.646Z,2.20
2023-06-12T05:04:28.203Z,2.20
2023-06-12T05:09:32.471Z,2.20
2023-06-12T05:14:36.297Z,2.20
2023-06-12T05:19:42.753Z,2.40
2023-06-12T05:24:47.397Z,2.20
2023-06-12T05:29:50.955Z,2.20
2023-06-12T05:34:54.561Z,2.30
2023-06-12T05:39:58.127Z,2.30
2023-06-12T05:45:06.447Z,2.10
2023-06-12T05:50:40.681Z,2.20
2023-06-12T05:56:11.655Z,2.40
2023-06-12T06:01:23.393Z,2.30
2023-06-12T06:06:27.903Z,2.30
2023-06-12T06:11:31.563Z,2.40
2023-06-12T06:16:49.296Z,2.20
2023-06-12T06:21:58.914Z,2.30
2023-06-12T06:27:03.900Z,2.20
2023-06-12T06:32:07.928Z,1.90
2023-06-12T06:37:20.762Z,1.90
2023-06-12T06:42:24.125Z,1.60
2023-06-12T06:47:29.898Z,2.20
2023-06-12T06:52:33.503Z,2.10
2023-06-12T06:57:40.858Z,2.50
2023-06-12T07:02:44.773Z,2.00
2023-06-12T07:08:01.009Z,1.90
2023-06-12T07:13:07.762Z,2.20
2023-06-12T07:18:12.922Z,1.90
2023-06-12T07:23:16.406Z,2.00
2023-06-12T07:28:21.032Z,2.10
2023-06-12T07:33:25.614Z,1.90
2023-06-12T07:38:32.932Z,2.00
2023-06-12T07:43:36.452Z,1.90
2023-06-12T07:48:40.098Z,1.80
2023-06-12T07:53:44.538Z,1.60
2023-06-12T07:58:48.259Z,1.90
2023-06-12T08:03:58.904Z,1.80
2023-06-12T08:09:04.033Z,1.50
2023-06-12T08:14:19.228Z,1.70
2023-06-12T08:19:22.614Z,1.70
2023-06-12T08:24:31.334Z,1.80
2023-06-12T08:30:56.098Z,1.70
2023-06-12T08:36:17.027Z,2.00
2023-06-12T08:41:31.939Z,1.70
2023-06-12T08:46:35.871Z,1.90
2023-06-12T08:51:43.025Z,1.80
2023-06-12T08:56:47.856Z,1.80
2023-06-12T09:02:12.289Z,1.90
2023-06-12T09:07:20.405Z,1.50
2023-06-12T09:12:24.621Z,1.50
2023-06-12T09:17:35.603Z,1.40
2023-06-12T09:22:40.463Z,1.80
2023-06-12T09:27:45.731Z,1.40
2023-06-12T09:32:49.478Z,1.60
2023-06-12T09:37:52.976Z,1.60
2023-06-12T09:42:56.400Z,1.50
2023-06-12T09:48:00.402Z,1.60
2023-06-12T09:53:18.436Z,1.60
2023-06-12T09:58:22.881Z,1.40
2023-06-12T10:03:27.696Z,1.40
2023-06-12T10:08:32.386Z,1.30
2023-06-12T10:13:37.221Z,1.30
2023-06-12T10:18:42.457Z,1.40
2023-06-12T10:23:46.487Z,1.40
2023-06-12T10:28:49.952Z,1.40
2023-06-12T10:34:02.710Z,1.20
2023-06-12T10:39:17.312Z,1.40
2023-06-12T10:44:44.971Z,1.00
2023-06-12T10:50:06.553Z,1.40
2023-06-12T10:55:21.730Z,1.40
2023-06-12T11:00:39.311Z,1.50
2023-06-12T11:11:24.371Z,1.50
2023-06-12T11:16:28.902Z,1.20
2023-06-12T11:21:34.419Z,1.10
2023-06-12T11:26:43.470Z,1.40
2023-06-12T11:31:51.780Z,1.10
2023-06-12T11:36:55.097Z,1.50
2023-06-12T11:42:00.892Z,1.00
2023-06-12T11:52:11.635Z,1.30
2023-06-12T11:57:18.106Z,1.50
2023-06-12T12:02:28.205Z,1.50
2023-06-12T12:07:32.709Z,1.40
2023-06-12T12:12:43.524Z,1.30
2023-06-12T12:17:49.887Z,1.30
2023-06-12T12:22:57.284Z,1.40
2023-06-12T12:28:03.180Z,1.70
2023-06-12T12:33:07.018Z,1.20
2023-06-12T12:38:10.446Z,1.70
2023-06-12T12:43:13.820Z,1.00
2023-06-12T12:48:17.300Z,1.30
2023-06-12T12:53:20.782Z,1.40
2023-06-12T12:58:24.883Z,1.40
2023-06-12T13:03:39.353Z,1.20
2023-06-12T13:08:42.802Z,1.20
2023-06-12T13:13:46.239Z,1.30
2023-06-12T13:18:50.098Z,1.30
2023-06-12T13:23:56.328Z,1.20
2023-06-12T13:29:00.544Z,1.20
2023-06-12T13:34:05.623Z,1.20
2023-06-12T13:39:09.025Z,1.50
2023-06-12T13:44:12.835Z,1.40
2023-06-12T13:49:16.589Z,1.50
2023-06-12T13:54:20.386Z,1.50
2023-06-12T13:59:23.785Z,1.20
2023-06-12T14:04:40.096Z,1.40
2023-06-12T14:09:47.204Z,1.40
2023-06-12T14:15:06.038Z,1.30
2023-06-12T14:20:14.495Z,1.40
2023-06-12T14:25:19.847Z,1.40
2023-06-12T14:30:31.099Z,1.40
2023-06-12T14:35:35.717Z,1.50
2023-06-12T14:40:40.784Z,1.50
2023-06-12T14:45:44.349Z,1.40
2023-06-12T14:50:48.631Z,1.40
2023-06-12T14:55:52.053Z,1.70
2023-06-12T15:00:55.693Z,1.30
2023-06-12T15:06:01.294Z,1.50
2023-06-12T15:11:06.686Z,1.30
2023-06-12T15:16:10.250Z,1.60
2023-06-12T15:21:15.638Z,1.40
2023-06-12T15:26:19.017Z,1.50
2023-06-12T15:31:26.157Z,1.30
2023-06-12T15:36:35.050Z,1.20
2023-06-12T15:41:43.687Z,1.30
2023-06-12T15:46:47.282Z,1.20
2023-06-12T15:51:50.915Z,1.20
2023-06-12T15:56:54.444Z,1.30
2023-06-12T16:01:59.768Z,1.40
2023-06-12T16:07:03.952Z,1.20
2023-06-12T16:12:08.962Z,1.40
2023-06-12T16:17:15.371Z,1.30
2023-06-12T16:22:18.774Z,1.40
2023-06-12T16:27:22.341Z,1.30
2023-06-12T16:32:26.085Z,1.40
2023-06-12T16:37:29.667Z,1.20
2023-06-12T16:42:34.200Z,1.30
2023-06-12T16:47:37.591Z,1.40
2023-06-12T16:52:41.257Z,1.70
2023-06-12T16:57:45.280Z,1.50
2023-06-12T17:02:49.618Z,1.60
2023-06-12T17:07:56.583Z,1.30
2023-06-12T17:13:01.080Z,1.40
2023-06-12T17:18:04.602Z,1.40
2023-06-12T17:23:10.265Z,1.50
2023-06-12T17:28:13.695Z,1.30
2023-06-12T17:33:17.417Z,1.50
2023-06-12T17:38:22.162Z,1.30
2023-06-12T17:43:25.728Z,1.30
2023-06-12T17:48:30.281Z,1.50
2023-06-12T17:53:33.956Z,1.30
2023-06-12T17:58:37.321Z,1.20
2023-06-12T18:03:41.579Z,1.30
2023-06-12T18:08:44.947Z,1.10
2023-06-12T18:13:48.360Z,1.30
2023-06-12T18:18:51.985Z,1.50
2023-06-12T18:23:55.720Z,1.40
2023-06-12T18:28:59.776Z,1.40
2023-06-12T18:34:04.282Z,1.50
2023-06-12T18:39:07.616Z,1.30
2023-06-12T18:44:13.879Z,2.60
2023-06-12T18:49:17.204Z,2.80
2023-06-12T18:54:21.679Z,2.20
2023-06-12T18:59:26.911Z,1.50
2023-06-12T19:04:30.406Z,1.40
2023-06-12T19:09:33.802Z,1.20
2023-06-12T19:14:37.258Z,1.70
2023-06-12T19:19:41.403Z,1.90
2023-06-12T19:24:46.096Z,1.90
2023-06-12T19:29:49.501Z,2.10
2023-06-12T19:34:52.931Z,1.70
2023-06-12T19:39:57.268Z,1.70
2023-06-12T19:45:01.205Z,2.10
2023-06-12T19:50:05.017Z,1.50
2023-06-12T19:55:10.495Z,1.80
2023-06-12T20:00:14.421Z,1.70
2023-06-12T20:05:18.021Z,2.60
2023-06-12T20:10:24.261Z,2.00
2023-06-12T20:15:27.635Z,1.70
2023-06-12T20:20:35.735Z,1.80
2023-06-12T20:25:39.487Z,1.90
2023-06-12T20:30:43.672Z,1.60
2023-06-12T20:35:47.614Z,1.60
2023-06-12T20:40:51.015Z,1.80
2023-06-12T20:45:55.604Z,1.80
2023-06-12T20:50:59.533Z,1.60
2023-06-12T20:56:03.216Z,1.80
2023-06-12T21:01:07.494Z,2.00
2023-06-12T21:06:10.984Z,1.50
2023-06-12T21:11:34.955Z,1.70
2023-06-12T21:16:39.930Z,1.60
2023-06-12T21:21:44.989Z,1.90
2023-06-12T21:26:48.387Z,1.60
2023-06-12T21:31:53.628Z,1.70
2023-06-12T21:37:06.239Z,1.50
2023-06-12T21:42:30.390Z,1.70
2023-06-12T21:47:33.975Z,1.30
2023-06-12T21:52:37.860Z,1.50
2023-06-12T21:57:41.466Z,1.20
2023-06-12T22:02:45.310Z,1.60
2023-06-12T22:07:49.029Z,1.40
2023-06-12T22:12:53.031Z,1.50
2023-06-12T22:17:57.100Z,1.20
2023-06-12T22:23:01.825Z,1.40
2023-06-12T22:28:05.645Z,1.40
2023-06-12T22:33:09.080Z,1.50
2023-06-12T22:38:12.870Z,1.30
2023-06-12T22:43:17.510Z,1.40
2023-06-12T22:48:30.261Z,1.60
2023-06-12T22:53:34.627Z,1.10
2023-06-12T22:58:38.201Z,1.50
2023-06-12T23:03:41.667Z,1.70
2023-06-12T23:08:45.125Z,1.40
2023-06-12T23:13:48.809Z,1.70
2023-06-12T23:18:55.269Z,1.40
2023-06-12T23:23:58.996Z,1.20
2023-06-12T23:29:03.335Z,1.40
2023-06-12T23:34:06.855Z,1.30
2023-06-12T23:39:11.412Z,1.40
2023-06-12T23:44:15.554Z,1.30
2023-06-12T23:49:19.257Z,1.50
2023-06-12T23:54:25.225Z,1.30
2023-06-12T23:59:28.750Z,1.20
